Time;durP1;ratioP1;P1;durP2;ratioP2;P2;SDS_P1;SDS_P2;PMS_P1;PMS_P2;Temp;Humidity;BMP_temperature;BMP_pressure;BME280_temperature;BME280_humidity;BME280_pressure;Samples;Min_cycle;Max_cycle;Signal;HPM_P1;HPM_P2
2022/01/28 00:00:16;;;;;;;19.10;3.25;;;4.70;99.90;;;;;;5018750;28;20691;-68
2022/01/28 00:05:17;;;;;;;15.43;2.63;;;4.70;99.90;;;;;;5021724;28;20040;-68
2022/01/28 00:07:43;;;;;;;17.35;2.50;;;4.60;99.90;;;;;;5021648;28;20077;-68
2022/01/28 00:10:09;;;;;;;11.10;1.90;;;4.60;99.90;;;;;;5017458;28;20503;-68
2022/01/28 00:12:40;;;;;;;17.58;2.35;;;4.60;99.90;;;;;;5021492;28;20071;-69
2022/01/28 00:15:17;;;;;;;14.48;1.60;;;4.70;99.90;;;;;;5021402;28;20493;-68
2022/01/28 00:39:32;;;;;;;24.13;2.33;;;4.60;99.90;;;;;;5021554;28;20045;-68
2022/01/28 00:41:58;;;;;;;11.65;1.77;;;4.60;99.90;;;;;;5014593;28;20041;-69
2022/01/28 00:44:24;;;;;;;11.27;2.40;;;4.60;99.90;;;;;;5019795;28;20052;-69
2022/01/28 00:46:50;;;;;;;12.85;2.03;;;4.60;99.90;;;;;;5020377;28;20037;-69
2022/01/28 00:49:16;;;;;;;13.10;1.88;;;4.60;99.90;;;;;;5021737;28;20554;-69
2022/01/28 00:51:42;;;;;;;9.90;1.52;;;4.60;99.90;;;;;;5019739;28;21266;-69
2022/01/28 00:54:07;;;;;;;15.23;2.65;;;4.70;99.90;;;;;;5019308;28;20734;-68
2022/01/28 00:56:33;;;;;;;17.52;2.83;;;4.70;99.90;;;;;;5019908;28;20061;-69
2022/01/28 00:58:59;;;;;;;17.52;2.50;;;4.70;99.90;;;;;;5018761;28;20385;-69
2022/01/28 01:01:29;;;;;;;18.02;2.90;;;4.70;99.90;;;;;;5019340;28;20037;-69
2022/01/28 01:03:59;;;;;;;18.88;2.90;;;4.60;99.90;;;;;;5021157;28;20064;-69
2022/01/28 01:06:26;;;;;;;17.27;2.80;;;4.60;99.90;;;;;;5017028;28;20038;-69
2022/01/28 01:08:51;;;;;;;16.80;2.58;;;4.60;99.90;;;;;;5021328;28;20108;-69
2022/01/28 01:11:20;;;;;;;15.82;3.00;;;4.60;99.90;;;;;;5020252;28;20128;-69
2022/01/28 01:13:47;;;;;;;23.05;3.05;;;4.50;99.90;;;;;;5019862;28;20405;-69
2022/01/28 01:16:17;;;;;;;16.25;3.13;;;4.50;99.90;;;;;;5021087;28;20122;-69
2022/01/28 01:21:18;;;;;;;22.02;3.55;;;4.50;99.90;;;;;;5018879;28;20634;-68
2022/01/28 01:23:51;;;;;;;13.25;2.75;;;4.50;99.90;;;;;;5021383;28;20081;-69
2022/01/28 01:26:17;;;;;;;16.13;2.63;;;4.50;99.90;;;;;;5020827;28;20469;-68
2022/01/28 01:28:43;;;;;;;14.93;2.30;;;4.60;99.90;;;;;;5021423;28;20034;-68
2022/01/28 01:31:15;;;;;;;17.50;2.78;;;4.60;99.90;;;;;;5019751;28;20056;-68
2022/01/28 01:33:50;;;;;;;13.45;2.92;;;4.70;99.90;;;;;;5021979;28;20117;-68
2022/01/28 01:36:16;;;;;;;17.42;2.90;;;4.70;99.90;;;;;;5004386;28;20132;-68
2022/01/28 01:38:42;;;;;;;16.65;2.08;;;4.70;99.90;;;;;;5022668;28;20173;-68
2022/01/28 01:41:14;;;;;;;18.38;2.58;;;4.70;99.90;;;;;;5022814;28;20049;-68
2022/01/28 01:43:59;;;;;;;14.07;2.53;;;4.70;99.90;;;;;;5024904;28;20042;-68
2022/01/28 01:52:02;;;;;;;11.63;2.05;;;4.70;99.90;;;;;;5024090;28;20060;-69
2022/01/28 01:54:29;;;;;;;17.92;2.65;;;4.80;99.90;;;;;;5023779;28;20076;-69
2022/01/28 01:56:55;;;;;;;12.55;1.48;;;4.70;99.90;;;;;;5026060;28;20100;-69
2022/01/28 01:59:21;;;;;;;19.52;2.65;;;4.70;99.90;;;;;;5018725;28;20068;-69
2022/01/28 02:01:47;;;;;;;13.90;2.15;;;4.70;99.90;;;;;;5026065;28;20189;-69
2022/01/28 02:04:13;;;;;;;16.23;2.03;;;4.60;99.90;;;;;;5021902;28;20120;-69
2022/01/28 02:06:40;;;;;;;11.40;2.15;;;4.60;99.90;;;;;;5024508;28;20522;-69
2022/01/28 02:09:07;;;;;;;20.58;3.05;;;4.60;99.90;;;;;;5026174;28;20112;-69
2022/01/28 02:11:33;;;;;;;20.52;2.75;;;4.60;99.90;;;;;;5022876;28;20069;-69
2022/01/28 02:13:59;;;;;;;16.65;2.70;;;4.60;99.90;;;;;;5024290;28;20068;-69
2022/01/28 02:16:24;;;;;;;14.73;2.20;;;4.60;99.90;;;;;;5023865;28;20045;-68
2022/01/28 02:18:50;;;;;;;14.00;2.15;;;4.60;99.90;;;;;;5023097;28;20069;-68
2022/01/28 02:21:18;;;;;;;20.65;2.70;;;4.60;99.90;;;;;;5020039;28;20038;-68
2022/01/28 02:23:48;;;;;;;13.50;2.80;;;4.60;99.90;;;;;;5011565;28;20114;-68
2022/01/28 02:26:16;;;;;;;15.00;2.60;;;4.60;99.90;;;;;;5025080;28;20525;-68
2022/01/28 02:28:46;;;;;;;13.38;2.35;;;4.50;99.90;;;;;;5018165;28;20112;-69
2022/01/28 02:31:12;;;;;;;19.55;2.78;;;4.60;99.90;;;;;;5015661;28;20046;-68
2022/01/28 02:33:38;;;;;;;21.27;3.25;;;4.60;99.90;;;;;;5021775;28;20505;-69
2022/01/28 02:36:07;;;;;;;13.05;1.95;;;4.70;99.90;;;;;;5021615;28;20046;-68
2022/01/28 02:38:34;;;;;;;15.07;2.85;;;4.70;99.90;;;;;;5018953;28;20048;-69
2022/01/28 02:41:01;;;;;;;25.63;3.47;;;4.70;99.90;;;;;;5004848;28;20041;-68
2022/01/28 02:46:15;;;;;;;13.90;2.42;;;4.50;99.90;;;;;;5021359;28;20390;-68
2022/01/28 02:48:52;;;;;;;14.32;2.58;;;4.60;99.90;;;;;;5018394;28;20090;-68
2022/01/28 02:51:20;;;;;;;13.18;2.28;;;4.60;99.90;;;;;;5021164;28;20049;-68
2022/01/28 02:56:35;;;;;;;21.48;3.30;;;4.50;99.90;;;;;;5017419;28;20085;-69
2022/01/28 02:59:02;;;;;;;11.82;2.08;;;4.40;99.90;;;;;;5018972;28;20386;-69
2022/01/28 03:01:28;;;;;;;19.25;2.30;;;4.40;99.90;;;;;;5022253;28;20049;-69
2022/01/28 03:03:55;;;;;;;13.48;2.42;;;4.40;99.90;;;;;;5022767;28;20402;-69
2022/01/28 03:06:21;;;;;;;20.00;2.50;;;4.30;99.90;;;;;;5000021;28;20045;-69
2022/01/28 03:09:01;;;;;;;19.38;3.13;;;4.20;99.90;;;;;;5021148;28;20037;-69
2022/01/28 03:16:51;;;;;;;18.98;2.78;;;4.10;99.90;;;;;;5019099;28;20038;-69
2022/01/28 03:19:20;;;;;;;18.27;2.78;;;4.10;99.90;;;;;;5024998;28;20090;-69
2022/01/28 03:21:54;;;;;;;15.93;2.70;;;4.00;99.90;;;;;;5020149;28;20453;-69
2022/01/28 03:24:24;;;;;;;11.18;2.10;;;4.00;99.90;;;;;;5023919;28;20075;-69
2022/01/28 03:26:55;;;;;;;20.67;3.55;;;4.00;99.90;;;;;;5020645;28;20053;-69
2022/01/28 03:29:21;;;;;;;18.60;2.95;;;4.00;99.90;;;;;;5018873;28;20521;-68
2022/01/28 03:31:47;;;;;;;15.18;2.78;;;4.10;99.90;;;;;;5020427;28;20042;-68
2022/01/28 03:34:13;;;;;;;22.35;2.97;;;4.20;99.90;;;;;;5021679;28;20057;-68
2022/01/28 03:36:39;;;;;;;20.52;2.58;;;4.20;99.90;;;;;;5021147;28;20167;-68
2022/01/28 03:39:05;;;;;;;17.55;2.58;;;4.20;99.90;;;;;;5021663;28;20053;-68
2022/01/28 03:41:30;;;;;;;20.13;3.17;;;4.30;99.90;;;;;;5017812;28;20041;-68
2022/01/28 03:43:59;;;;;;;22.75;3.10;;;4.30;99.90;;;;;;5020585;28;20045;-68
2022/01/28 03:46:28;;;;;;;17.83;3.00;;;4.40;99.90;;;;;;5018154;28;20049;-68
2022/01/28 03:48:54;;;;;;;17.60;3.22;;;4.40;99.90;;;;;;5019685;28;20041;-68
2022/01/28 03:51:21;;;;;;;22.73;3.80;;;4.40;99.90;;;;;;5026335;28;20414;-68
2022/01/28 03:53:47;;;;;;;18.88;3.25;;;4.40;99.90;;;;;;5017515;28;20125;-69
2022/01/28 03:56:14;;;;;;;15.93;3.28;;;4.30;99.90;;;;;;5014912;28;20045;-69
2022/01/28 03:58:39;;;;;;;25.45;3.25;;;4.30;99.90;;;;;;5018377;28;20055;-69
2022/01/28 04:01:12;;;;;;;22.13;4.00;;;4.30;99.90;;;;;;5020505;28;20041;-69
2022/01/28 04:03:45;;;;;;;21.45;3.92;;;4.20;99.90;;;;;;5020355;28;20045;-69
2022/01/28 04:11:49;;;;;;;19.27;3.23;;;4.20;99.90;;;;;;5022303;28;20050;-69
2022/01/28 04:14:25;;;;;;;25.00;3.60;;;4.20;99.90;;;;;;5015761;28;20037;-69
2022/01/28 04:19:31;;;;;;;26.83;3.20;;;4.30;99.90;;;;;;5016469;28;20180;-69
2022/01/28 04:21:57;;;;;;;27.48;4.20;;;4.30;99.90;;;;;;5017561;28;20117;-69
2022/01/28 04:24:23;;;;;;;17.63;3.75;;;4.30;99.90;;;;;;5014909;28;20042;-69
2022/01/28 04:26:48;;;;;;;20.75;3.50;;;4.40;99.90;;;;;;5023411;28;20041;-69
2022/01/28 04:29:15;;;;;;;25.10;3.45;;;4.40;99.90;;;;;;5015970;28;20076;-69
2022/01/28 04:31:43;;;;;;;23.25;3.60;;;4.40;99.90;;;;;;5020199;28;20150;-69
2022/01/28 04:34:19;;;;;;;24.92;3.92;;;4.40;99.90;;;;;;5016136;28;20045;-69
2022/01/28 04:36:56;;;;;;;16.90;3.05;;;4.40;99.90;;;;;;5018442;28;20049;-69
2022/01/28 04:44:33;;;;;;;24.15;3.13;;;4.50;99.90;;;;;;5013550;28;20051;-68
2022/01/28 04:47:13;;;;;;;25.60;4.30;;;4.50;99.90;;;;;;5019992;28;20064;-69
2022/01/28 05:00:26;;;;;;;19.37;2.97;;;4.50;99.90;;;;;;5018803;28;20053;-69
2022/01/28 05:08:31;;;;;;;19.55;3.42;;;4.50;99.90;;;;;;5023177;28;20054;-68
2022/01/28 05:24:09;;;;;;;22.63;3.40;;;4.40;99.90;;;;;;5021556;28;20152;-69
2022/01/28 05:26:34;;;;;;;25.13;4.30;;;4.40;99.90;;;;;;5019571;28;20108;-69
2022/01/28 05:29:00;;;;;;;25.52;3.78;;;4.40;99.90;;;;;;5022230;28;20037;-69
2022/01/28 05:31:26;;;;;;;23.17;3.95;;;4.40;99.90;;;;;;5003760;28;20590;-69
2022/01/28 05:33:52;;;;;;;27.63;3.67;;;4.40;99.90;;;;;;5023984;28;20037;-69
2022/01/28 05:36:18;;;;;;;24.25;4.10;;;4.40;99.90;;;;;;5023335;28;20092;-69
2022/01/28 05:38:44;;;;;;;27.60;4.00;;;4.50;99.90;;;;;;5019355;28;20476;-69
2022/01/28 05:41:10;;;;;;;24.35;3.63;;;4.50;99.90;;;;;;5019172;28;20572;-69
2022/01/28 05:43:35;;;;;;;26.98;4.70;;;4.50;99.90;;;;;;5024031;28;20100;-69
2022/01/28 05:46:01;;;;;;;19.25;3.75;;;4.50;99.90;;;;;;5015562;28;20112;-69
2022/01/28 05:48:27;;;;;;;24.02;4.03;;;4.50;99.90;;;;;;5016376;28;20041;-69
2022/01/28 05:50:53;;;;;;;23.48;3.60;;;4.50;99.90;;;;;;5028149;28;20041;-69
2022/01/28 05:53:18;;;;;;;25.63;3.88;;;4.50;99.90;;;;;;5009376;28;20045;-69
2022/01/28 05:55:44;;;;;;;23.05;4.15;;;4.50;99.90;;;;;;5024187;28;20072;-69
2022/01/28 05:58:10;;;;;;;23.88;3.90;;;4.50;99.90;;;;;;5003014;28;20152;-69
2022/01/28 06:00:36;;;;;;;21.58;3.60;;;4.40;99.90;;;;;;5019186;28;20481;-69
2022/01/28 06:03:02;;;;;;;21.98;3.75;;;4.40;99.90;;;;;;5019291;28;20048;-69
2022/01/28 06:05:30;;;;;;;27.35;3.92;;;4.30;99.90;;;;;;5021049;28;20499;-69
2022/01/28 06:08:00;;;;;;;18.65;3.40;;;4.20;99.90;;;;;;5026122;28;20121;-69
2022/01/28 06:10:26;;;;;;;17.75;3.78;;;4.20;99.90;;;;;;5019343;28;20042;-69
2022/01/28 06:12:52;;;;;;;31.75;4.07;;;4.10;99.90;;;;;;5008632;28;20042;-69
2022/01/28 06:15:18;;;;;;;23.23;4.07;;;4.00;99.90;;;;;;5015321;28;20046;-69
2022/01/28 06:17:44;;;;;;;19.60;3.38;;;4.00;99.90;;;;;;5019981;28;20033;-69
2022/01/28 06:20:13;;;;;;;25.98;3.28;;;4.00;99.90;;;;;;5018073;28;20114;-69
2022/01/28 06:22:40;;;;;;;22.65;3.40;;;3.90;99.90;;;;;;5020559;28;20065;-69
2022/01/28 06:25:07;;;;;;;19.25;3.63;;;3.80;99.90;;;;;;5024111;28;20490;-69
2022/01/28 06:27:33;;;;;;;28.92;4.70;;;3.80;99.90;;;;;;5024633;28;20041;-69
2022/01/28 06:29:58;;;;;;;25.95;4.53;;;3.70;99.90;;;;;;5020969;28;20042;-69
2022/01/28 06:32:24;;;;;;;34.55;4.43;;;3.80;99.90;;;;;;5023227;28;20096;-69
2022/01/28 06:34:50;;;;;;;25.33;4.00;;;3.80;99.90;;;;;;5017486;28;20119;-69
2022/01/28 06:37:15;;;;;;;21.50;4.05;;;3.80;99.90;;;;;;5014355;28;20060;-69
2022/01/28 06:39:41;;;;;;;24.83;4.00;;;3.90;99.90;;;;;;5025846;28;20053;-69
2022/01/28 06:42:07;;;;;;;29.90;4.60;;;3.90;99.90;;;;;;5007600;28;20128;-69
2022/01/28 06:44:33;;;;;;;21.95;4.30;;;3.90;99.90;;;;;;5019646;28;20526;-69
2022/01/28 06:46:59;;;;;;;27.02;4.00;;;4.00;99.90;;;;;;4994380;28;20053;-69
2022/01/28 06:49:24;;;;;;;23.17;4.28;;;4.00;99.90;;;;;;5022085;28;20088;-69
2022/01/28 06:51:50;;;;;;;20.15;4.10;;;4.00;99.90;;;;;;5018577;28;20061;-69
2022/01/28 06:54:16;;;;;;;25.30;4.32;;;4.00;99.90;;;;;;5000879;28;20056;-69
2022/01/28 06:56:41;;;;;;;23.75;4.47;;;4.10;99.90;;;;;;5024726;28;20049;-68
2022/01/28 06:59:07;;;;;;;25.65;4.43;;;4.10;99.90;;;;;;5020149;28;20316;-69
2022/01/28 07:01:33;;;;;;;27.05;4.32;;;4.10;99.90;;;;;;5019769;28;20130;-69
2022/01/28 07:04:00;;;;;;;26.13;3.60;;;4.10;99.90;;;;;;5003807;28;20042;-69
2022/01/28 07:06:26;;;;;;;26.60;5.10;;;4.10;99.90;;;;;;5016697;28;20108;-69
2022/01/28 07:08:52;;;;;;;26.75;4.00;;;4.10;99.90;;;;;;5017052;28;20398;-69
2022/01/28 07:11:18;;;;;;;28.95;4.55;;;4.10;99.90;;;;;;5021281;28;20059;-69
2022/01/28 07:13:44;;;;;;;26.17;3.65;;;4.20;99.90;;;;;;5015547;28;20042;-69
2022/01/28 07:16:10;;;;;;;22.58;3.97;;;4.30;99.90;;;;;;5019945;28;20393;-69
2022/01/28 07:18:35;;;;;;;26.70;3.58;;;4.30;99.90;;;;;;5029582;28;20025;-68
2022/01/28 07:21:02;;;;;;;24.77;3.90;;;4.30;99.90;;;;;;5018715;28;20040;-68
2022/01/28 07:23:28;;;;;;;21.90;3.58;;;4.30;99.90;;;;;;5016195;28;20310;-68
2022/01/28 07:25:55;;;;;;;25.48;4.03;;;4.30;99.90;;;;;;5019407;28;20088;-68
2022/01/28 07:28:23;;;;;;;22.85;4.13;;;4.30;99.90;;;;;;5007046;28;20081;-69
2022/01/28 07:30:48;;;;;;;22.42;3.28;;;4.30;99.90;;;;;;5018011;28;20084;-69
2022/01/28 07:33:14;;;;;;;20.50;3.50;;;4.30;99.90;;;;;;5025996;28;20033;-69
2022/01/28 07:35:40;;;;;;;21.92;3.50;;;4.30;99.90;;;;;;5021478;28;20041;-69
2022/01/28 07:38:06;;;;;;;27.30;3.83;;;4.30;99.90;;;;;;5017181;28;20076;-70
2022/01/28 07:40:31;;;;;;;23.52;3.60;;;4.20;99.90;;;;;;5026402;28;20405;-70
2022/01/28 07:42:57;;;;;;;24.10;4.47;;;4.20;99.90;;;;;;5025684;28;20049;-70
2022/01/28 07:45:24;;;;;;;23.17;4.07;;;4.20;99.90;;;;;;5016500;28;20061;-70
2022/01/28 07:47:51;;;;;;;22.77;3.72;;;4.20;99.90;;;;;;5021304;28;20076;-70
2022/01/28 07:50:17;;;;;;;22.42;3.83;;;4.10;99.90;;;;;;5012879;28;20470;-70
2022/01/28 07:52:43;;;;;;;22.10;3.60;;;4.10;99.90;;;;;;5024150;28;20045;-70
2022/01/28 07:55:11;;;;;;;18.17;3.45;;;4.00;99.90;;;;;;5017538;28;20045;-70
2022/01/28 07:57:37;;;;;;;19.90;3.88;;;4.00;99.90;;;;;;5015317;28;20122;-69
2022/01/28 08:00:08;;;;;;;23.58;3.40;;;4.00;99.90;;;;;;5016959;28;20046;-69
2022/01/28 08:02:34;;;;;;;26.65;3.70;;;4.00;99.90;;;;;;5022045;28;20573;-69
2022/01/28 08:05:00;;;;;;;16.73;3.15;;;4.00;99.90;;;;;;5034382;28;20064;-69
2022/01/28 08:07:26;;;;;;;21.45;4.03;;;4.00;99.90;;;;;;5022810;28;20053;-70
2022/01/28 08:09:51;;;;;;;20.55;3.00;;;4.00;99.90;;;;;;5015260;28;20050;-70
2022/01/28 08:12:17;;;;;;;16.45;3.15;;;4.00;99.90;;;;;;5022052;28;20055;-70
2022/01/28 08:14:43;;;;;;;23.48;3.22;;;3.90;99.90;;;;;;5016677;28;20048;-70
2022/01/28 08:17:09;;;;;;;17.75;3.28;;;4.00;99.90;;;;;;5021683;28;20531;-70
2022/01/28 08:19:34;;;;;;;19.30;3.75;;;3.90;99.90;;;;;;5019833;28;20037;-70
2022/01/28 08:22:00;;;;;;;26.10;3.70;;;3.90;99.90;;;;;;5019297;28;20485;-70
2022/01/28 08:24:25;;;;;;;20.02;2.90;;;3.90;99.90;;;;;;5016441;28;20117;-70
2022/01/28 08:26:51;;;;;;;17.95;2.97;;;3.90;99.90;;;;;;5018392;28;20049;-70
2022/01/28 08:29:17;;;;;;;18.08;3.28;;;4.00;99.90;;;;;;5023309;28;20042;-70
2022/01/28 08:31:43;;;;;;;17.17;3.78;;;4.00;99.90;;;;;;5013255;28;20069;-70
2022/01/28 08:34:09;;;;;;;25.60;3.97;;;4.00;99.90;;;;;;5015736;28;20140;-70
2022/01/28 08:36:35;;;;;;;19.30;3.63;;;4.10;99.90;;;;;;5016504;28;20200;-70
2022/01/28 08:39:04;;;;;;;19.45;3.47;;;4.40;99.90;;;;;;5022658;28;20389;-70
2022/01/28 08:41:31;;;;;;;22.35;4.07;;;4.80;99.90;;;;;;5021713;28;20060;-70
2022/01/28 08:43:57;;;;;;;20.27;3.83;;;5.10;99.90;;;;;;5017477;28;20059;-70
2022/01/28 08:46:23;;;;;;;22.38;4.00;;;5.50;99.90;;;;;;5021497;28;20046;-68
2022/01/28 08:48:48;;;;;;;20.02;3.70;;;5.80;99.90;;;;;;5022446;28;20064;-70
2022/01/28 08:51:15;;;;;;;19.02;3.33;;;6.00;99.90;;;;;;5021033;28;20444;-70
2022/01/28 08:53:42;;;;;;;18.20;3.35;;;6.40;99.90;;;;;;5021019;28;20053;-69
2022/01/28 08:56:08;;;;;;;20.23;4.00;;;6.50;99.90;;;;;;5021833;28;20041;-69
2022/01/28 08:58:34;;;;;;;19.95;4.65;;;6.90;99.90;;;;;;5021651;28;20042;-69
2022/01/28 09:01:00;;;;;;;27.63;4.50;;;7.10;99.90;;;;;;5018474;28;20052;-69
2022/01/28 09:03:26;;;;;;;23.05;3.92;;;7.10;99.90;;;;;;5022639;28;20034;-69
2022/01/28 09:05:52;;;;;;;21.95;4.32;;;7.00;99.90;;;;;;5018063;28;20172;-69
2022/01/28 09:08:17;;;;;;;20.63;3.38;;;6.80;99.90;;;;;;5017087;28;20037;-69
2022/01/28 09:10:56;;;;;;;25.15;3.83;;;6.50;99.90;;;;;;5018100;28;20109;-69
2022/01/28 09:13:27;;;;;;;23.98;3.58;;;6.30;99.90;;;;;;5020295;28;20113;-69
2022/01/28 09:15:55;;;;;;;21.98;2.95;;;6.10;99.90;;;;;;5021416;28;20413;-69
2022/01/28 09:18:22;;;;;;;17.95;3.38;;;6.10;99.90;;;;;;5014190;28;20046;-69
2022/01/28 09:20:48;;;;;;;20.88;3.83;;;6.00;99.90;;;;;;5013919;28;20041;-69
2022/01/28 09:23:15;;;;;;;22.55;2.97;;;5.90;99.90;;;;;;5017810;28;20530;-69
2022/01/28 09:25:40;;;;;;;22.45;3.75;;;5.90;99.90;;;;;;5021655;28;20172;-69
2022/01/28 09:28:06;;;;;;;21.80;3.88;;;6.00;99.90;;;;;;5011018;28;20132;-69
2022/01/28 09:30:32;;;;;;;24.33;3.83;;;6.60;99.90;;;;;;5016829;28;20045;-69
2022/01/28 09:32:58;;;;;;;18.48;3.50;;;7.50;99.90;;;;;;5014427;28;20083;-69
2022/01/28 09:35:24;;;;;;;22.40;4.22;;;8.40;99.90;;;;;;5013379;28;20045;-69
2022/01/28 09:37:52;;;;;;;20.80;3.95;;;9.00;99.90;;;;;;5017667;28;20506;-69
2022/01/28 09:40:19;;;;;;;22.38;4.25;;;9.40;99.90;;;;;;5016891;28;20072;-69
2022/01/28 09:42:45;;;;;;;20.63;4.13;;;9.90;99.90;;;;;;5020064;28;20466;-69
2022/01/28 09:45:16;;;;;;;24.15;3.53;;;10.00;99.30;;;;;;5019586;28;20045;-69
2022/01/28 09:47:42;;;;;;;19.73;3.58;;;9.70;97.90;;;;;;5018409;28;20058;-69
2022/01/28 09:50:08;;;;;;;26.40;3.75;;;9.10;98.10;;;;;;5023799;28;20477;-69
2022/01/28 09:52:35;;;;;;;20.30;3.78;;;8.50;98.50;;;;;;5017073;28;20049;-69
2022/01/28 09:55:01;;;;;;;20.48;3.58;;;8.10;98.80;;;;;;5028683;28;20041;-69
2022/01/28 09:57:27;;;;;;;22.85;3.95;;;7.90;99.60;;;;;;5019004;28;20054;-69
2022/01/28 09:59:52;;;;;;;19.33;3.58;;;7.70;99.80;;;;;;5025744;28;20056;-69
2022/01/28 10:02:19;;;;;;;20.50;3.45;;;7.50;99.90;;;;;;5009247;28;20145;-69
2022/01/28 10:04:46;;;;;;;17.23;3.40;;;7.40;99.90;;;;;;5022128;28;20084;-69
2022/01/28 10:07:16;;;;;;;23.70;4.20;;;7.40;99.90;;;;;;5010638;28;20139;-69
2022/01/28 10:09:56;;;;;;;21.73;3.92;;;7.40;99.90;;;;;;5022974;28;20194;-69
2022/01/28 10:12:33;;;;;;;19.95;3.80;;;7.50;99.90;;;;;;5024249;28;20391;-69
2022/01/28 10:15:04;;;;;;;22.50;3.60;;;7.50;99.90;;;;;;5021085;28;20443;-69
2022/01/28 10:17:55;;;;;;;22.88;3.13;;;7.60;99.90;;;;;;5039290;28;20076;-69
2022/01/28 10:20:23;;;;;;;19.98;4.00;;;7.50;99.80;;;;;;5020292;28;20046;-69
2022/01/28 10:22:54;;;;;;;21.83;4.30;;;7.40;99.90;;;;;;5017293;28;20038;-69
2022/01/28 10:25:37;;;;;;;18.23;3.70;;;7.30;99.90;;;;;;5007578;28;20045;-69
2022/01/28 10:28:09;;;;;;;25.35;4.07;;;7.30;99.90;;;;;;5026966;28;20408;-69
2022/01/28 10:30:42;;;;;;;22.95;3.70;;;7.30;99.90;;;;;;5016730;28;20069;-69
2022/01/28 10:33:21;;;;;;;21.35;4.43;;;7.30;99.90;;;;;;5020281;28;20061;-69
2022/01/28 10:35:58;;;;;;;25.50;4.35;;;7.30;99.90;;;;;;5017408;28;20042;-69
2022/01/28 10:38:35;;;;;;;22.00;3.50;;;7.30;99.90;;;;;;5028876;28;20037;-69
2022/01/28 10:41:15;;;;;;;17.70;3.92;;;7.40;99.90;;;;;;5019699;28;20041;-69
2022/01/28 10:43:49;;;;;;;24.00;4.05;;;7.50;99.90;;;;;;5021759;28;20563;-69
2022/01/28 10:46:34;;;;;;;24.40;4.17;;;7.50;99.90;;;;;;5018383;28;20411;-69
2022/01/28 10:49:02;;;;;;;20.73;3.80;;;7.50;99.40;;;;;;5020971;28;20044;-69
2022/01/28 10:51:43;;;;;;;30.25;4.43;;;7.50;99.90;;;;;;5017969;28;20477;-69
2022/01/28 10:54:15;;;;;;;21.20;3.42;;;7.60;99.90;;;;;;5022940;28;20033;-69
2022/01/28 10:56:48;;;;;;;22.73;4.30;;;7.70;99.90;;;;;;5016666;28;20525;-69
2022/01/28 10:59:19;;;;;;;21.48;3.80;;;7.70;99.70;;;;;;5025013;28;20103;-69
2022/01/28 11:01:46;;;;;;;27.70;4.72;;;7.70;99.90;;;;;;5021881;28;20121;-69
2022/01/28 11:04:14;;;;;;;22.15;4.68;;;7.70;99.40;;;;;;5023579;28;20045;-69
2022/01/28 11:06:41;;;;;;;27.73;4.72;;;7.70;99.20;;;;;;5015249;28;20061;-69
2022/01/28 11:09:11;;;;;;;26.38;3.95;;;7.70;99.60;;;;;;5024574;28;20034;-69
2022/01/28 11:11:38;;;;;;;21.38;3.70;;;7.80;99.90;;;;;;5018807;28;20266;-69
2022/01/28 11:14:05;;;;;;;28.13;4.80;;;7.90;99.50;;;;;;5024769;28;20401;-69
2022/01/28 11:16:31;;;;;;;23.00;4.30;;;7.80;99.50;;;;;;5000606;28;20124;-69
2022/01/28 11:18:58;;;;;;;22.00;4.65;;;7.90;99.60;;;;;;5021084;28;20056;-69
2022/01/28 11:21:43;;;;;;;21.90;3.50;;;8.00;99.90;;;;;;5017620;28;20050;-69
2022/01/28 11:24:43;;;;;;;20.83;3.92;;;8.10;99.50;;;;;;4989437;28;20045;-69
2022/01/28 11:27:29;;;;;;;18.00;3.58;;;8.00;99.10;;;;;;5013422;28;20052;-69
2022/01/28 11:30:15;;;;;;;19.88;4.45;;;8.10;99.40;;;;;;5017746;28;20034;-69
2022/01/28 11:33:01;;;;;;;24.92;4.15;;;8.10;99.10;;;;;;5017360;28;20069;-69
2022/01/28 11:35:32;;;;;;;23.98;3.70;;;8.10;99.50;;;;;;5019066;28;20038;-69
2022/01/28 11:38:04;;;;;;;29.70;3.20;;;8.10;99.50;;;;;;5016945;28;20095;-69
2022/01/28 11:40:56;;;;;;;22.40;3.90;;;8.20;99.50;;;;;;5022869;28;20042;-69
2022/01/28 11:43:27;;;;;;;23.35;3.75;;;8.30;99.30;;;;;;5020384;28;20047;-69
2022/01/28 11:46:05;;;;;;;17.65;3.10;;;8.20;99.30;;;;;;5018646;28;20517;-69
2022/01/28 11:48:54;;;;;;;24.60;3.78;;;8.20;99.00;;;;;;5015967;28;20565;-69
2022/01/28 11:51:35;;;;;;;21.63;3.22;;;8.20;98.70;;;;;;5017644;28;20049;-69
2022/01/28 11:54:05;;;;;;;21.95;3.78;;;8.20;98.90;;;;;;5025975;28;20041;-69
2022/01/28 11:56:32;;;;;;;23.92;4.22;;;8.20;99.10;;;;;;5020560;28;20536;-69
2022/01/28 11:59:00;;;;;;;19.35;4.25;;;8.10;98.80;;;;;;5023109;28;20104;-69
2022/01/28 12:01:45;;;;;;;23.83;3.40;;;8.10;99.00;;;;;;5016194;28;20103;-69
2022/01/28 12:04:27;;;;;;;21.45;4.07;;;8.10;97.90;;;;;;5019073;28;20048;-69
2022/01/28 12:07:02;;;;;;;26.27;4.10;;;8.00;98.30;;;;;;5019389;28;20042;-69
2022/01/28 12:09:36;;;;;;;25.17;4.05;;;7.90;98.10;;;;;;5018698;28;20069;-69
2022/01/28 12:12:03;;;;;;;25.93;3.40;;;7.80;98.00;;;;;;5016159;28;20037;-69
2022/01/28 12:15:09;;;;;;;15.40;3.33;;;7.80;98.10;;;;;;5022998;28;20474;-69
2022/01/28 12:17:39;;;;;;;21.90;3.35;;;7.70;98.00;;;;;;5001031;28;20101;-69
2022/01/28 12:20:19;;;;;;;22.23;3.70;;;7.70;97.70;;;;;;5019275;28;20106;-69
2022/01/28 12:23:04;;;;;;;14.65;3.50;;;7.60;96.90;;;;;;5017269;28;20065;-69
2022/01/28 12:25:50;;;;;;;17.50;4.03;;;7.50;97.00;;;;;;5018833;28;20486;-69
2022/01/28 12:28:31;;;;;;;17.38;3.17;;;7.40;97.10;;;;;;5001041;28;20132;-69
2022/01/28 12:31:05;;;;;;;16.42;2.63;;;7.50;97.60;;;;;;5015240;28;20061;-69
2022/01/28 12:33:40;;;;;;;14.43;2.77;;;7.40;97.70;;;;;;5020301;28;20152;-69
2022/01/28 12:36:11;;;;;;;15.90;2.70;;;7.40;97.20;;;;;;5015807;28;20280;-69
2022/01/28 12:38:43;;;;;;;22.67;3.67;;;7.40;97.10;;;;;;5022132;28;20041;-69
2022/01/28 12:41:14;;;;;;;15.50;2.95;;;7.50;97.10;;;;;;5018020;28;20401;-69
2022/01/28 12:43:39;;;;;;;23.92;3.75;;;7.40;97.00;;;;;;5022205;28;20061;-69
2022/01/28 12:46:14;;;;;;;20.48;2.70;;;7.40;97.20;;;;;;5013650;28;20038;-69
2022/01/28 12:48:48;;;;;;;19.58;3.45;;;7.40;97.40;;;;;;5035897;28;20087;-69
2022/01/28 12:51:14;;;;;;;23.52;3.67;;;7.40;97.60;;;;;;5022083;28;20034;-69
2022/01/28 12:53:43;;;;;;;20.00;3.60;;;7.40;97.70;;;;;;5014441;28;20514;-69
2022/01/28 12:56:10;;;;;;;22.48;3.05;;;7.40;97.80;;;;;;5018146;28;20033;-69
2022/01/28 12:58:38;;;;;;;19.30;3.95;;;7.40;97.90;;;;;;4998940;28;20525;-69
2022/01/28 13:01:16;;;;;;;16.73;2.90;;;7.40;97.80;;;;;;5022398;28;20427;-69
2022/01/28 13:09:24;;;;;;;16.40;3.22;;;7.70;97.90;;;;;;5019092;28;20667;-69
2022/01/28 13:11:57;;;;;;;20.70;3.55;;;7.70;97.90;;;;;;5013007;28;20225;-68
2022/01/28 13:14:36;;;;;;;22.13;3.03;;;7.60;97.90;;;;;;5020979;28;20103;-68
2022/01/28 13:17:06;;;;;;;17.50;2.72;;;7.70;97.90;;;;;;5017008;28;20433;-69
2022/01/28 13:19:31;;;;;;;19.73;2.92;;;7.70;97.80;;;;;;5019229;28;20037;-69
2022/01/28 13:21:57;;;;;;;17.63;3.20;;;7.70;98.10;;;;;;5021319;28;20879;-69
2022/01/28 13:24:29;;;;;;;21.60;3.20;;;7.80;98.30;;;;;;5018730;28;20042;-69
2022/01/28 13:27:08;;;;;;;22.20;3.40;;;7.70;98.30;;;;;;5023230;28;20076;-69
2022/01/28 13:29:44;;;;;;;22.65;3.20;;;7.80;98.30;;;;;;5023971;28;20058;-69
2022/01/28 13:32:25;;;;;;;25.00;3.55;;;7.80;98.40;;;;;;5023840;28;20663;-69
2022/01/28 13:34:52;;;;;;;21.40;3.22;;;7.90;98.20;;;;;;5020626;28;20056;-69
2022/01/28 13:37:40;;;;;;;18.10;2.95;;;8.00;98.20;;;;;;5025349;28;20046;-69
2022/01/28 13:40:17;;;;;;;20.70;2.95;;;8.00;98.10;;;;;;5026945;28;20460;-69
2022/01/28 13:43:01;;;;;;;16.88;2.80;;;7.90;98.10;;;;;;5040432;28;20049;-69
2022/01/28 13:45:40;;;;;;;16.70;2.70;;;8.10;98.10;;;;;;5039862;28;20048;-69
2022/01/28 13:48:22;;;;;;;18.15;2.85;;;8.10;97.80;;;;;;5021645;28;20045;-69
2022/01/28 13:50:52;;;;;;;18.25;2.67;;;8.20;97.40;;;;;;5020877;28;20474;-69
2022/01/28 13:56:12;;;;;;;18.52;2.75;;;8.70;96.70;;;;;;5020637;28;20049;-69
2022/01/28 13:58:56;;;;;;;17.27;2.58;;;8.70;96.70;;;;;;5024329;28;21484;-69
2022/01/28 14:01:24;;;;;;;15.32;2.22;;;8.70;96.70;;;;;;5020578;28;20037;-68
2022/01/28 14:04:18;;;;;;;16.73;2.75;;;8.50;96.90;;;;;;5005197;28;20165;-69
2022/01/28 14:06:43;;;;;;;18.27;2.33;;;8.40;96.90;;;;;;5024660;28;20492;-70
2022/01/28 14:09:17;;;;;;;16.27;2.55;;;8.20;97.40;;;;;;5021238;28;20038;-70
2022/01/28 14:11:51;;;;;;;20.55;2.65;;;8.10;97.60;;;;;;5015769;28;20474;-70
2022/01/28 14:14:32;;;;;;;13.50;2.23;;;8.00;97.70;;;;;;5024853;28;20045;-70
2022/01/28 14:17:04;;;;;;;19.42;2.80;;;7.80;97.80;;;;;;5019621;28;20049;-69
2022/01/28 14:19:33;;;;;;;14.68;2.30;;;7.80;98.50;;;;;;5024726;28;20501;-70
2022/01/28 14:22:00;;;;;;;16.73;2.80;;;7.80;98.30;;;;;;5016859;28;20096;-69
2022/01/28 14:24:29;;;;;;;18.85;2.33;;;7.70;98.30;;;;;;5021114;28;20038;-70
2022/01/28 14:29:47;;;;;;;20.42;2.97;;;7.80;98.50;;;;;;5026852;28;20057;-70
2022/01/28 14:32:15;;;;;;;18.23;2.10;;;7.80;98.60;;;;;;5017112;28;20060;-70
2022/01/28 14:34:42;;;;;;;15.50;2.90;;;7.80;98.70;;;;;;5025641;28;20171;-70
2022/01/28 14:37:08;;;;;;;15.43;2.67;;;7.70;98.60;;;;;;5041037;28;20446;-69